Time;durP1;ratioP1;P1;durP2;ratioP2;P2;SDS_P1;SDS_P2;PMS_P1;PMS_P2;Temp;Humidity;BMP_temperature;BMP_pressure;BME280_temperature;BME280_humidity;BME280_pressure;Samples;Min_cycle;Max_cycle;Signal;HPM_P1;HPM_P2
2023/02/20 00:01:53;;;;;;;13.10;5.40;;;;;;;0.24;100.00;100167.50;107546;1277;22993;-76
2023/02/20 00:04:24;;;;;;;12.10;5.20;;;;;;;0.24;100.00;100169.65;107636;1277;25405;-75
2023/02/20 00:06:55;;;;;;;11.30;4.70;;;;;;;0.25;100.00;100164.60;107444;1277;23908;-76
2023/02/20 00:09:24;;;;;;;11.80;4.70;;;;;;;0.25;100.00;100162.44;107553;1277;25459;-75
2023/02/20 00:11:54;;;;;;;8.80;4.50;;;;;;;0.25;100.00;100161.19;107494;1277;25432;-73
2023/02/20 00:14:26;;;;;;;11.10;4.50;;;;;;;0.24;100.00;100155.75;107451;1277;25433;-75
2023/02/20 00:16:54;;;;;;;11.50;4.50;;;;;;;0.23;100.00;100151.77;106672;1277;1002847;-76
2023/02/20 00:19:27;;;;;;;11.30;4.80;;;;;;;0.23;100.00;100144.48;107621;1277;22520;-75
2023/02/20 00:21:59;;;;;;;7.70;4.20;;;;;;;0.24;100.00;100139.95;107507;1275;23259;-76
2023/02/20 00:24:31;;;;;;;12.50;5.30;;;;;;;0.25;100.00;100140.13;107299;1277;22539;-74
2023/02/20 00:27:00;;;;;;;13.30;5.10;;;;;;;0.24;100.00;100138.23;106759;1277;1002899;-75
2023/02/20 00:29:31;;;;;;;15.20;5.60;;;;;;;0.24;100.00;100137.69;107482;1277;22698;-75
2023/02/20 00:32:02;;;;;;;15.70;6.70;;;;;;;0.24;100.00;100129.34;107478;1277;25932;-77
2023/02/20 00:34:32;;;;;;;15.20;6.60;;;;;;;0.25;100.00;100128.23;107491;1277;25426;-76
2023/02/20 00:37:04;;;;;;;15.20;6.10;;;;;;;0.24;100.00;100125.60;107437;1277;26537;-76
2023/02/20 00:39:33;;;;;;;14.40;5.90;;;;;;;0.24;100.00;100123.30;107537;1277;23898;-75
2023/02/20 00:42:02;;;;;;;10.70;4.50;;;;;;;0.24;100.00;100118.92;107468;1277;25426;-75
2023/02/20 00:44:32;;;;;;;12.10;5.10;;;;;;;0.24;100.00;100117.30;107492;1277;24041;-75
2023/02/20 00:47:01;;;;;;;14.90;5.60;;;;;;;0.24;100.00;100115.49;107441;1277;22584;-76
2023/02/20 00:49:30;;;;;;;11.00;4.40;;;;;;;0.25;100.00;100112.98;107574;1277;22624;-75
2023/02/20 00:52:10;;;;;;;12.50;5.00;;;;;;;0.25;100.00;100114.77;107598;1277;23285;-75
2023/02/20 00:54:41;;;;;;;11.40;4.80;;;;;;;0.24;100.00;100114.47;107504;1277;23622;-76
2023/02/20 00:57:09;;;;;;;15.40;4.90;;;;;;;0.22;100.00;100113.20;109097;1277;23106;-75
2023/02/20 00:59:38;;;;;;;10.70;4.70;;;;;;;0.20;100.00;100108.84;108017;1277;1002371;-76
2023/02/20 01:02:20;;;;;;;12.30;4.70;;;;;;;0.18;100.00;100104.89;107575;1277;26640;-76
2023/02/20 01:04:51;;;;;;;12.30;4.70;;;;;;;0.16;100.00;100102.05;107501;1277;25453;-75
2023/02/20 01:07:20;;;;;;;15.50;5.40;;;;;;;0.13;100.00;100100.31;107582;1277;26037;-74
2023/02/20 01:09:49;;;;;;;12.70;4.70;;;;;;;0.10;100.00;100102.78;107569;1277;25275;-75
2023/02/20 01:12:18;;;;;;;9.90;4.60;;;;;;;0.10;100.00;100101.40;107512;1277;23874;-74
2023/02/20 01:14:47;;;;;;;14.00;5.00;;;;;;;0.10;100.00;100100.33;107497;1277;22539;-76
2023/02/20 01:17:16;;;;;;;12.00;5.30;;;;;;;0.10;100.00;100103.67;107662;1277;24126;-75
2023/02/20 01:19:44;;;;;;;7.90;4.10;;;;;;;0.11;100.00;100100.78;107578;1277;22548;-76
2023/02/20 01:22:13;;;;;;;8.50;4.60;;;;;;;0.11;100.00;100097.41;107451;1277;22613;-75
2023/02/20 01:24:42;;;;;;;10.90;4.90;;;;;;;0.11;100.00;100100.11;107511;1277;23185;-75
2023/02/20 01:27:11;;;;;;;9.10;4.60;;;;;;;0.10;100.00;100103.00;107439;1277;22649;-76
2023/02/20 01:29:40;;;;;;;10.10;5.00;;;;;;;0.09;100.00;100105.20;107575;1277;25731;-77
2023/02/20 01:32:10;;;;;;;10.30;4.50;;;;;;;0.07;100.00;100107.64;107542;1277;26701;-75
2023/02/20 01:34:39;;;;;;;13.40;4.60;;;;;;;0.04;100.00;100102.48;106732;1277;1015701;-76
2023/02/20 01:37:12;;;;;;;12.40;5.30;;;;;;;0.02;100.00;100103.00;106783;1278;1002797;-76
2023/02/20 01:39:41;;;;;;;12.00;5.50;;;;;;;-0.01;100.00;100101.58;106729;1277;1002905;-75
2023/02/20 01:42:12;;;;;;;11.80;5.70;;;;;;;-0.03;100.00;100096.02;107495;1277;22518;-75
2023/02/20 01:44:41;;;;;;;13.90;5.60;;;;;;;-0.04;100.00;100099.98;107680;1254;22639;-75
2023/02/20 01:47:20;;;;;;;16.20;6.10;;;;;;;-0.06;100.00;100097.84;107575;1277;22555;-76
2023/02/20 01:49:55;;;;;;;14.30;6.50;;;;;;;-0.07;100.00;100101.95;106841;1277;1002938;-76
2023/02/20 01:52:28;;;;;;;15.00;5.90;;;;;;;-0.07;100.00;100097.89;107582;1277;24255;-75
2023/02/20 01:55:00;;;;;;;12.20;5.40;;;;;;;-0.04;100.00;100100.38;106815;1277;1003710;-77
2023/02/20 01:57:32;;;;;;;13.70;5.50;;;;;;;-0.03;100.00;100099.77;107518;1277;23771;-76
2023/02/20 02:00:09;;;;;;;10.20;5.10;;;;;;;-0.03;100.00;100102.08;106672;1278;1003163;-76
2023/02/20 02:02:47;;;;;;;11.30;4.70;;;;;;;-0.04;100.00;100098.73;106608;1277;1003724;-75
2023/02/20 02:05:15;;;;;;;13.80;4.10;;;;;;;-0.04;100.00;100105.70;107423;1270;24237;-78
2023/02/20 02:07:44;;;;;;;10.90;3.90;;;;;;;-0.06;100.00;100110.04;107155;1277;25432;-76
2023/02/20 02:10:17;;;;;;;9.00;4.50;;;;;;;-0.06;100.00;100110.06;106568;1277;1003559;-77
2023/02/20 02:12:49;;;;;;;6.60;3.70;;;;;;;-0.07;100.00;100112.81;107268;1277;25450;-76
2023/02/20 02:15:18;;;;;;;8.60;4.90;;;;;;;-0.09;100.00;100115.77;107398;1277;24042;-75
2023/02/20 02:17:50;;;;;;;9.60;4.20;;;;;;;-0.11;100.00;100117.84;107493;1277;23872;-76
2023/02/20 02:20:44;;;;;;;8.60;4.40;;;;;;;-0.13;100.00;100119.77;107434;1277;25293;-77
2023/02/20 02:23:51;;;;;;;10.00;3.80;;;;;;;-0.16;100.00;100122.95;107513;1277;22612;-75
2023/02/20 02:26:44;;;;;;;6.50;3.50;;;;;;;-0.20;100.00;100119.48;107357;1277;22615;-75
2023/02/20 02:29:53;;;;;;;6.80;3.70;;;;;;;-0.25;100.00;100126.34;106782;1277;1003405;-76
2023/02/20 02:32:41;;;;;;;4.80;3.20;;;;;;;-0.29;100.00;100130.16;107449;1277;25429;-75
2023/02/20 02:36:07;;;;;;;7.30;3.70;;;;;;;-0.32;100.00;100139.91;106997;1274;1003651;-75
2023/02/20 02:38:51;;;;;;;10.90;3.60;;;;;;;-0.33;100.00;100128.82;107035;1281;22543;-76
2023/02/20 02:41:38;;;;;;;7.40;3.50;;;;;;;-0.33;100.00;100145.68;107172;1281;23924;-75
2023/02/20 02:44:29;;;;;;;8.40;3.70;;;;;;;-0.38;100.00;100145.46;106816;1274;1003370;-75
2023/02/20 02:47:26;;;;;;;8.00;3.20;;;;;;;-0.43;100.00;100145.40;107737;1274;23933;-76
2023/02/20 02:49:59;;;;;;;8.00;3.60;;;;;;;-0.47;100.00;100146.19;107629;1274;25897;-77
2023/02/20 02:55:17;;;;;;;6.60;3.20;;;;;;;-0.52;100.00;100152.56;107512;1274;24359;-77
2023/02/20 02:57:47;;;;;;;9.90;3.50;;;;;;;-0.55;100.00;100158.04;107717;1274;22593;-74
2023/02/20 03:00:29;;;;;;;6.60;3.60;;;;;;;-0.57;100.00;100161.89;107567;1274;25427;-75
2023/02/20 03:03:06;;;;;;;7.50;3.80;;;;;;;-0.60;100.00;100163.80;107669;1274;26567;-76
2023/02/20 03:06:01;;;;;;;14.50;4.90;;;;;;;-0.60;100.00;100166.67;106944;1274;1002774;-75
2023/02/20 03:08:42;;;;;;;12.30;4.70;;;;;;;-0.62;100.00;100166.61;107619;1274;25456;-76
2023/02/20 03:11:19;;;;;;;17.30;6.00;;;;;;;-0.66;100.00;100170.94;107751;1274;22517;-76
2023/02/20 03:16:57;;;;;;;20.50;6.40;;;;;;;-0.78;100.00;100178.02;106880;1274;1002650;-75
2023/02/20 03:19:33;;;;;;;15.50;6.00;;;;;;;-0.82;100.00;100183.45;107613;1274;22530;-76
2023/02/20 03:22:01;;;;;;;14.20;5.30;;;;;;;-0.85;100.00;100184.48;107653;1274;22471;-76
2023/02/20 03:24:30;;;;;;;11.20;4.30;;;;;;;-0.86;100.00;100189.86;107445;1275;23887;-77
2023/02/20 03:27:00;;;;;;;12.00;5.10;;;;;;;-0.87;100.00;100189.09;107587;1274;22539;-74
2023/02/20 03:29:33;;;;;;;9.80;4.30;;;;;;;-0.89;100.00;100184.77;107634;1274;26590;-75
2023/02/20 03:43:26;;;;;;;19.50;8.90;;;;;;;-1.05;100.00;100192.30;107663;1274;23809;-74
2023/02/20 03:46:02;;;;;;;14.00;6.60;;;;;;;-1.10;100.00;100193.48;107676;1250;22537;-76
2023/02/20 03:48:32;;;;;;;11.50;5.80;;;;;;;-1.13;100.00;100198.98;107539;1274;22537;-74
2023/02/20 03:51:00;;;;;;;12.20;5.10;;;;;;;-1.17;100.00;100197.02;107597;1274;25518;-74
2023/02/20 03:53:32;;;;;;;8.50;5.10;;;;;;;-1.18;100.00;100196.96;107649;1274;25236;-75
2023/02/20 03:56:05;;;;;;;9.80;5.60;;;;;;;-1.20;100.00;100199.37;106960;1274;1002721;-75
2023/02/20 03:58:37;;;;;;;13.80;7.20;;;;;;;-1.23;100.00;100200.09;106904;1274;1002854;-75
2023/02/20 04:01:06;;;;;;;8.40;4.40;;;;;;;-1.26;100.00;100200.27;106893;1273;1003281;-76
2023/02/20 04:03:39;;;;;;;9.90;4.40;;;;;;;-1.30;100.00;100202.08;107601;1275;25403;-75
2023/02/20 04:06:08;;;;;;;5.00;3.50;;;;;;;-1.34;100.00;100200.34;107561;1274;25497;-76
2023/02/20 04:08:44;;;;;;;7.50;3.70;;;;;;;-1.37;100.00;100201.59;106909;1274;1003033;-76
2023/02/20 04:11:14;;;;;;;8.50;3.20;;;;;;;-1.40;100.00;100196.66;107792;1274;22476;-76
2023/02/20 04:13:44;;;;;;;5.10;3.20;;;;;;;-1.43;100.00;100195.59;107852;1274;23911;-76
2023/02/20 04:16:13;;;;;;;3.90;2.70;;;;;;;-1.44;100.00;100195.52;107634;1274;25430;-75
2023/02/20 04:18:43;;;;;;;5.40;2.40;;;;;;;-1.46;100.00;100189.22;107663;1274;23077;-75
2023/02/20 04:21:22;;;;;;;6.00;2.70;;;;;;;-1.47;100.00;100189.27;107730;1274;22472;-75
2023/02/20 04:24:01;;;;;;;6.60;2.90;;;;;;;-1.48;100.00;100187.59;107744;1274;25410;-77
2023/02/20 04:26:31;;;;;;;4.00;2.70;;;;;;;-1.51;100.00;100187.23;107709;1274;26619;-76
2023/02/20 04:29:00;;;;;;;3.90;2.50;;;;;;;-1.53;100.00;100189.64;106783;1273;1003766;-76
2023/02/20 04:31:28;;;;;;;8.00;3.10;;;;;;;-1.55;100.00;100191.68;106959;1274;1002936;-75
2023/02/20 04:33:57;;;;;;;3.70;2.60;;;;;;;-1.58;100.00;100190.48;107066;1274;1003053;-75
2023/02/20 04:36:27;;;;;;;5.30;2.90;;;;;;;-1.60;100.00;100188.64;109230;1274;23747;-75
2023/02/20 04:38:57;;;;;;;6.00;2.90;;;;;;;-1.62;100.00;100182.94;109144;1274;1002478;-75
2023/02/20 04:41:30;;;;;;;5.60;2.80;;;;;;;-1.63;100.00;100182.30;108031;1273;22568;-75
2023/02/20 04:46:47;;;;;;;4.50;2.40;;;;;;;-1.64;100.00;100192.05;107862;1274;22540;-74
2023/02/20 04:49:16;;;;;;;6.80;3.30;;;;;;;-1.63;100.00;100192.91;107239;1274;1002589;-76
2023/02/20 04:51:48;;;;;;;7.80;3.10;;;;;;;-1.62;100.00;100197.44;107142;1274;1003254;-75
2023/02/20 04:54:17;;;;;;;5.00;2.60;;;;;;;-1.61;100.00;100198.95;107077;1274;1003049;-76
2023/02/20 04:56:46;;;;;;;7.20;3.30;;;;;;;-1.60;100.00;100199.77;107026;1257;1003324;-75
2023/02/20 04:59:15;;;;;;;7.90;3.80;;;;;;;-1.58;100.00;100201.61;107922;1274;25297;-76
2023/02/20 05:01:46;;;;;;;7.70;3.50;;;;;;;-1.57;100.00;100208.08;107874;1274;25242;-76
2023/02/20 05:04:15;;;;;;;9.20;4.10;;;;;;;-1.57;100.00;100209.28;107274;1274;1003498;-75
2023/02/20 05:06:49;;;;;;;;;;;;;;;-1.56;100.00;100211.91;107155;1274;1003659;-75
2023/02/20 05:09:19;;;;;;;12.90;5.30;;;;;;;-1.53;100.00;100220.05;107753;1274;23941;-75
2023/02/20 05:11:47;;;;;;;11.30;4.70;;;;;;;-1.50;100.00;100218.00;108103;1274;22528;-76
2023/02/20 05:14:17;;;;;;;12.80;4.80;;;;;;;-1.50;100.00;100211.45;107804;1275;22527;-75
2023/02/20 05:16:46;;;;;;;13.80;5.60;;;;;;;-1.50;100.00;100214.40;107826;1274;24247;-75
2023/02/20 05:19:15;;;;;;;17.50;6.60;;;;;;;-1.48;100.00;100216.98;107829;1275;23797;-75
2023/02/20 05:24:31;;;;;;;19.10;6.60;;;;;;;-1.43;100.00;100218.77;107755;1273;24212;-74
2023/02/20 05:27:00;;;;;;;23.60;6.70;;;;;;;-1.41;100.00;100217.77;106976;1274;1003588;-75
2023/02/20 05:29:29;;;;;;;18.80;7.80;;;;;;;-1.38;100.00;100226.77;107020;1275;1002894;-74
2023/02/20 05:31:58;;;;;;;22.80;7.90;;;;;;;-1.37;100.00;100224.77;107008;1274;1002585;-75
2023/02/20 05:34:26;;;;;;;19.30;8.30;;;;;;;-1.37;100.00;100227.05;107871;1274;22533;-76
2023/02/20 05:36:56;;;;;;;21.50;8.00;;;;;;;-1.36;100.00;100228.78;107774;1274;22552;-75
2023/02/20 05:39:24;;;;;;;23.20;9.60;;;;;;;-1.34;100.00;100227.61;107953;1274;23871;-75
2023/02/20 05:41:53;;;;;;;27.00;11.10;;;;;;;-1.32;100.00;100228.75;107758;1274;25964;-74
2023/02/20 05:44:22;;;;;;;29.10;11.70;;;;;;;-1.28;100.00;100235.61;107888;1274;22534;-75
2023/02/20 05:46:53;;;;;;;26.70;11.00;;;;;;;-1.24;100.00;100233.02;108124;1274;23783;-75
2023/02/20 05:49:22;;;;;;;27.10;11.00;;;;;;;-1.19;100.00;100233.95;107909;1274;22618;-75
2023/02/20 05:51:51;;;;;;;23.80;11.00;;;;;;;-1.15;100.00;100234.64;107902;1274;22553;-76
2023/02/20 05:54:21;;;;;;;21.70;9.90;;;;;;;-1.11;100.00;100235.46;107150;1274;1003416;-76
2023/02/20 05:56:50;;;;;;;27.60;12.10;;;;;;;-1.09;100.00;100236.75;107985;1274;25419;-74
2023/02/20 05:59:20;;;;;;;28.10;11.70;;;;;;;-1.07;100.00;100240.19;107767;1274;24442;-76
2023/02/20 06:01:54;;;;;;;22.30;10.00;;;;;;;-1.04;100.00;100239.80;107733;1274;25345;-74
2023/02/20 06:04:22;;;;;;;27.00;11.00;;;;;;;-0.97;100.00;100243.99;107831;1274;25423;-75
2023/02/20 06:06:52;;;;;;;26.40;10.40;;;;;;;-0.87;100.00;100242.72;107061;1274;1002929;-75
2023/02/20 06:09:20;;;;;;;24.00;10.30;;;;;;;-0.75;100.00;100240.20;107875;1274;22536;-76
2023/02/20 06:11:52;;;;;;;21.00;9.00;;;;;;;-0.59;100.00;100241.84;106935;1275;1002880;-74
2023/02/20 06:14:22;;;;;;;16.30;7.50;;;;;;;-0.45;100.00;100242.75;107752;1274;24473;-73
2023/02/20 06:16:51;;;;;;;23.10;7.90;;;;;;;-0.34;100.00;100241.76;107478;1273;26194;-69
2023/02/20 06:19:23;;;;;;;20.60;8.60;;;;;;;-0.29;100.00;100243.73;107357;1272;25387;-75
2023/02/20 06:21:52;;;;;;;25.70;8.50;;;;;;;-0.27;100.00;100245.89;107170;1274;24247;-72
2023/02/20 06:24:21;;;;;;;19.60;8.00;;;;;;;-0.26;100.00;100249.89;106575;1275;1002901;-73
2023/02/20 06:26:51;;;;;;;17.20;7.50;;;;;;;-0.23;100.00;100256.29;107246;1275;23801;-73
2023/02/20 06:29:19;;;;;;;15.30;6.00;;;;;;;-0.18;100.00;100257.07;107221;1275;25447;-74
2023/02/20 06:31:49;;;;;;;16.70;5.80;;;;;;;-0.09;100.00;100261.77;107415;1275;25425;-71
2023/02/20 06:34:18;;;;;;;16.00;5.70;;;;;;;0.00;100.00;100264.34;106409;1275;1002911;-74
2023/02/20 06:36:47;;;;;;;16.00;6.50;;;;;;;0.10;100.00;100268.58;107318;1274;25426;-74
2023/02/20 06:39:15;;;;;;;15.50;6.80;;;;;;;0.20;100.00;100270.54;106406;1267;1003160;-71
2023/02/20 06:41:44;;;;;;;16.20;8.30;;;;;;;0.31;100.00;100274.79;107219;1273;25510;-74
2023/02/20 06:44:13;;;;;;;19.10;8.20;;;;;;;0.40;100.00;100279.04;106597;1275;1002861;-76
2023/02/20 06:46:42;;;;;;;21.90;8.30;;;;;;;0.48;100.00;100279.91;106710;1275;1002941;-73
2023/02/20 06:49:11;;;;;;;16.40;7.00;;;;;;;0.59;100.00;100286.47;107307;1275;23754;-75
2023/02/20 06:51:40;;;;;;;14.60;6.40;;;;;;;0.70;100.00;100287.20;107595;1275;22495;-74
2023/02/20 06:54:10;;;;;;;15.80;7.30;;;;;;;0.85;100.00;100293.25;107670;1275;24219;-74
2023/02/20 06:56:39;;;;;;;16.00;6.40;;;;;;;0.98;100.00;100290.65;107595;1275;22531;-74
2023/02/20 06:59:09;;;;;;;16.40;7.20;;;;;;;1.08;100.00;100293.89;107947;1275;25990;-76
2023/02/20 07:01:40;;;;;;;17.10;8.20;;;;;;;1.18;100.00;100298.17;107631;1275;26521;-75
2023/02/20 07:04:27;;;;;;;24.60;9.60;;;;;;;1.23;100.00;100303.34;107132;1275;1003501;-77
2023/02/20 07:06:55;;;;;;;23.30;10.20;;;;;;;1.26;100.00;100305.95;107824;1275;22592;-76
2023/02/20 07:09:24;;;;;;;19.30;8.70;;;;;;;1.28;100.00;100320.01;107898;1273;26625;-76
2023/02/20 07:11:53;;;;;;;39.20;19.90;;;;;;;1.29;100.00;100325.97;107662;1273;24194;-76
2023/02/20 07:14:23;;;;;;;22.60;9.30;;;;;;;1.36;100.00;100329.95;107650;1273;25446;-76
2023/02/20 07:16:52;;;;;;;21.60;8.70;;;;;;;1.47;100.00;100330.83;107734;1267;22671;-75
2023/02/20 07:19:20;;;;;;;23.00;9.50;;;;;;;1.56;100.00;100335.36;107028;1275;1003303;-75
2023/02/20 07:21:49;;;;;;;18.50;7.10;;;;;;;1.64;100.00;100346.16;106898;1274;1003794;-71
2023/02/20 07:24:19;;;;;;;19.10;8.10;;;;;;;1.68;100.00;100338.95;107794;1269;24236;-74
2023/02/20 07:26:51;;;;;;;20.10;8.50;;;;;;;1.71;100.00;100324.59;107631;1270;24218;-76
2023/02/20 07:29:20;;;;;;;18.40;7.80;;;;;;;1.79;100.00;100317.21;106846;1267;1002917;-73
2023/02/20 07:31:48;;;;;;;21.70;8.20;;;;;;;1.94;100.00;100303.77;106439;1270;1003289;-73
2023/02/20 07:34:17;;;;;;;26.30;9.70;;;;;;;2.05;100.00;100298.70;106297;1275;1003631;-73
2023/02/20 07:36:47;;;;;;;19.70;7.60;;;;;;;2.16;100.00;100278.70;107184;1274;25495;-74
2023/02/20 07:39:16;;;;;;;21.30;8.10;;;;;;;2.26;100.00;100265.73;107392;1271;24311;-74
2023/02/20 07:41:45;;;;;;;20.80;8.40;;;;;;;2.37;100.00;100245.88;106415;1275;1003258;-73
2023/02/20 07:44:35;;;;;;;28.20;10.50;;;;;;;2.50;100.00;100215.35;106645;1275;1002412;-74
2023/02/20 07:47:04;;;;;;;68.00;36.80;;;;;;;2.59;100.00;100202.96;106471;1275;1002783;-73
2023/02/20 07:49:32;;;;;;;34.30;18.60;;;;;;;2.65;100.00;100185.89;107038;1275;22528;-72
2023/02/20 07:52:03;;;;;;;30.40;14.80;;;;;;;2.75;100.00;100163.78;107392;1275;25287;-71
2023/02/20 07:54:32;;;;;;;23.60;12.40;;;;;;;2.93;100.00;100154.41;106989;1275;25500;-68
2023/02/20 07:57:00;;;;;;;22.10;10.10;;;;;;;3.08;100.00;100130.09;107095;1274;25252;-72
2023/02/20 07:59:30;;;;;;;18.10;8.50;;;;;;;3.10;100.00;100096.95;107031;1273;26512;-71
2023/02/20 08:01:59;;;;;;;19.80;7.80;;;;;;;3.06;100.00;100056.70;107387;1274;23719;-72
2023/02/20 08:04:29;;;;;;;19.60;7.70;;;;;;;3.00;100.00;100010.34;107297;1274;25434;-72
2023/02/20 08:06:58;;;;;;;28.10;11.80;;;;;;;2.95;100.00;99975.26;107348;1275;26503;-72
2023/02/20 08:09:27;;;;;;;23.70;10.20;;;;;;;2.98;100.00;99952.58;107028;1274;1003186;-73
2023/02/20 08:11:56;;;;;;;16.80;6.40;;;;;;;3.00;100.00;99925.73;108255;1270;23887;-72
2023/02/20 08:14:28;;;;;;;10.90;5.00;;;;;;;2.91;100.00;99881.40;109733;1267;24018;-71
2023/02/20 08:16:57;;;;;;;12.70;6.10;;;;;;;2.86;100.00;99858.34;107795;1270;25903;-70
2023/02/20 08:19:25;;;;;;;11.80;4.80;;;;;;;2.81;100.00;99834.89;107175;1269;22527;-72
2023/02/20 08:21:56;;;;;;;7.50;4.20;;;;;;;2.76;100.00;99814.10;106532;1271;1003710;-72
2023/02/20 08:24:24;;;;;;;10.50;4.40;;;;;;;2.72;100.00;99794.16;106791;1275;1003609;-74
2023/02/20 08:26:54;;;;;;;14.30;5.60;;;;;;;2.75;100.00;99787.66;107455;1267;26595;-72
2023/02/20 08:29:26;;;;;;;13.40;5.20;;;;;;;2.83;100.00;99791.81;107512;1270;24077;-75
2023/02/20 08:31:55;;;;;;;13.50;4.50;;;;;;;2.85;100.00;99780.24;106535;1267;1003054;-68
2023/02/20 08:34:24;;;;;;;8.20;3.50;;;;;;;2.81;100.00;99754.55;107065;1273;25362;-68
2023/02/20 08:36:52;;;;;;;10.40;4.20;;;;;;;2.73;100.00;99725.52;106340;1275;1003183;-68
2023/02/20 08:39:21;;;;;;;12.20;5.60;;;;;;;2.72;100.00;99712.65;107007;1273;25347;-68
2023/02/20 08:41:51;;;;;;;16.60;6.30;;;;;;;2.82;100.00;99716.25;107028;1270;22543;-69
2023/02/20 08:44:20;;;;;;;17.90;7.30;;;;;;;2.90;100.00;99712.34;107266;1275;23325;-67
2023/02/20 08:46:52;;;;;;;22.30;9.20;;;;;;;3.00;100.00;99721.83;107613;1272;25352;-68
2023/02/20 08:49:23;;;;;;;18.70;8.00;;;;;;;3.22;100.00;99732.23;107232;1275;23982;-67
2023/02/20 08:51:54;;;;;;;22.00;11.40;;;;;;;3.50;100.00;99746.58;106283;1274;1003358;-69
2023/02/20 08:54:23;;;;;;;16.30;7.20;;;;;;;3.68;100.00;99724.19;107089;1269;22538;-71
2023/02/20 08:56:52;;;;;;;14.00;5.70;;;;;;;3.66;100.00;99684.25;107218;1275;23851;-73
2023/02/20 08:59:21;;;;;;;11.90;5.10;;;;;;;3.54;100.00;99649.30;107264;1274;25426;-73
2023/02/20 09:01:49;;;;;;;20.90;8.90;;;;;;;3.53;100.00;99640.44;106368;1267;1002894;-72
2023/02/20 09:04:20;;;;;;;11.90;6.50;;;;;;;3.64;100.00;99643.43;107419;1267;25426;-72
2023/02/20 09:06:49;;;;;;;14.90;7.10;;;;;;;3.66;100.00;99620.95;106969;1267;25413;-75
2023/02/20 09:09:17;;;;;;;14.70;6.80;;;;;;;3.67;100.00;99607.13;107279;1273;26518;-76
2023/02/20 09:11:46;;;;;;;19.20;6.90;;;;;;;3.80;100.00;99619.52;107398;1267;24237;-70
2023/02/20 09:14:15;;;;;;;22.20;10.30;;;;;;;3.97;100.00;99629.23;106086;1272;1003615;-70
2023/02/20 09:16:51;;;;;;;17.60;6.60;;;;;;;3.90;100.00;99619.70;106917;1271;22557;-70
2023/02/20 09:19:20;;;;;;;20.40;9.40;;;;;;;3.69;100.00;99598.55;106253;1275;1003542;-68
2023/02/20 09:21:49;;;;;;;17.10;6.50;;;;;;;3.48;100.00;99579.25;106552;1275;1003425;-77
2023/02/20 09:24:17;;;;;;;18.60;8.20;;;;;;;3.33;100.00;99568.99;106734;1275;1003212;-73
2023/02/20 09:26:46;;;;;;;11.10;5.50;;;;;;;3.33;100.00;99573.78;106641;1275;1003017;-74
2023/02/20 09:29:15;;;;;;;7.50;4.10;;;;;;;3.42;100.00;99563.94;107013;1269;1002631;-72
2023/02/20 09:31:45;;;;;;;3.60;3.00;;;;;;;3.58;100.00;99547.02;106997;1274;1002306;-73
2023/02/20 09:34:15;;;;;;;5.90;3.10;;;;;;;3.67;100.00;99543.71;106863;1274;1003785;-74
2023/02/20 09:36:43;;;;;;;8.90;4.80;;;;;;;3.69;100.00;99525.87;106854;1274;1002813;-74
2023/02/20 09:39:16;;;;;;;10.30;5.10;;;;;;;3.59;100.00;99496.29;107740;1274;22462;-74
2023/02/20 09:41:55;;;;;;;21.40;11.10;;;;;;;3.64;100.00;99485.17;107920;1274;26564;-75
2023/02/20 09:44:37;;;;;;;;;;;;;;;3.52;100.00;99468.79;107864;1275;25287;-74
2023/02/20 09:47:21;;;;;;;6.20;3.60;;;;;;;3.53;100.00;99467.55;107175;1274;1003000;-75
2023/02/20 09:50:01;;;;;;;9.50;5.00;;;;;;;3.66;100.00;99450.25;108095;1274;22461;-76
2023/02/20 09:52:33;;;;;;;12.30;5.00;;;;;;;3.77;100.00;99434.40;108254;1274;23990;-76
2023/02/20 09:55:12;;;;;;;8.80;4.30;;;;;;;3.82;100.00;99387.70;107886;1274;25306;-75
2023/02/20 09:57:41;;;;;;;12.10;4.60;;;;;;;3.68;100.00;99291.91;108036;1274;22547;-76
2023/02/20 10:00:35;;;;;;;12.50;5.10;;;;;;;3.65;100.00;99263.68;106967;1274;1003796;-77
2023/02/20 10:03:39;;;;;;;21.50;10.80;;;;;;;3.62;100.00;99234.21;107276;1274;1003765;-76
2023/02/20 10:06:16;;;;;;;14.00;7.70;;;;;;;3.61;100.00;99190.05;107434;1274;24243;-76
2023/02/20 10:08:48;;;;;;;9.60;5.30;;;;;;;3.50;100.00;99153.04;107786;1267;1003120;-74
2023/02/20 10:11:28;;;;;;;7.20;4.40;;;;;;;3.43;100.00;99133.33;107850;1275;24163;-73
2023/02/20 10:14:29;;;;;;;7.50;4.30;;;;;;;3.54;100.00;99131.92;107543;1274;23883;-73
2023/02/20 10:17:21;;;;;;;11.70;3.50;;;;;;;3.75;100.00;99124.15;106659;1273;1002972;-69
2023/02/20 10:20:10;;;;;;;7.20;2.90;;;;;;;3.74;100.00;99104.15;106547;1275;1003018;-69
2023/02/20 10:23:18;;;;;;;7.90;4.30;;;;;;;3.69;100.00;99073.50;107027;1269;25344;-69
2023/02/20 10:25:53;;;;;;;8.30;3.70;;;;;;;3.71;100.00;99060.80;106800;1275;22540;-69
2023/02/20 10:28:22;;;;;;;15.50;6.20;;;;;;;3.66;100.00;99062.91;107175;1267;23229;-69
2023/02/20 10:30:56;;;;;;;16.40;7.40;;;;;;;3.58;100.00;99053.00;107014;1269;25290;-70
2023/02/20 10:33:28;;;;;;;22.40;8.70;;;;;;;3.47;100.00;99052.62;107175;1273;25252;-67
2023/02/20 10:36:10;;;;;;;6.30;3.60;;;;;;;3.28;100.00;99053.79;106278;1273;1003125;-68
2023/02/20 10:39:13;;;;;;;20.30;9.70;;;;;;;3.10;100.00;99047.48;107196;1267;26610;-69
2023/02/20 10:42:07;;;;;;;22.80;12.80;;;;;;;3.20;100.00;99052.16;106328;1271;1003447;-70
2023/02/20 10:44:44;;;;;;;11.10;5.40;;;;;;;3.51;100.00;99054.13;107169;1274;25435;-65
2023/02/20 10:47:31;;;;;;;4.30;3.30;;;;;;;3.70;100.00;99046.11;107017;1269;24211;-68
2023/02/20 10:50:16;;;;;;;10.40;4.00;;;;;;;3.62;100.00;99050.64;107031;1275;25307;-70
2023/02/20 10:53:22;;;;;;;5.50;3.60;;;;;;;3.49;100.00;99050.15;107089;1274;25357;-72
2023/02/20 10:55:57;;;;;;;8.00;3.90;;;;;;;3.24;100.00;99053.97;107230;1274;22639;-68
2023/02/20 10:58:33;;;;;;;9.20;4.50;;;;;;;3.01;100.00;99043.30;107004;1274;22526;-69
2023/02/20 11:01:04;;;;;;;9.50;4.90;;;;;;;2.92;100.00;99044.36;107006;1274;22523;-68
2023/02/20 11:04:10;;;;;;;9.10;4.20;;;;;;;2.87;100.00;99049.70;107133;1274;22523;-68
2023/02/20 11:06:45;;;;;;;9.70;4.10;;;;;;;2.86;100.00;99053.09;107186;1274;25372;-68
2023/02/20 11:09:14;;;;;;;15.10;5.20;;;;;;;2.88;100.00;99050.21;107148;1274;22600;-70
2023/02/20 11:11:48;;;;;;;7.70;3.80;;;;;;;2.89;100.00;99041.78;107138;1269;25433;-69
2023/02/20 11:14:21;;;;;;;6.00;3.20;;;;;;;2.82;100.00;99051.90;107155;1268;23062;-71
2023/02/20 11:17:13;;;;;;;8.90;4.20;;;;;;;2.85;100.00;99049.14;106261;1269;1015696;-70
2023/02/20 11:19:47;;;;;;;17.50;8.10;;;;;;;2.92;100.00;99052.73;108246;1267;1003986;-72
2023/02/20 11:22:16;;;;;;;23.50;12.50;;;;;;;2.99;100.00;99054.16;107270;1274;1003759;-70
2023/02/20 11:24:46;;;;;;;7.30;3.50;;;;;;;3.12;100.00;99049.29;107007;1274;23306;-66
2023/02/20 11:27:16;;;;;;;8.60;3.90;;;;;;;3.12;100.00;99045.99;106989;1274;25409;-70
2023/02/20 11:29:50;;;;;;;9.20;5.00;;;;;;;3.18;100.00;99044.20;107131;1274;24247;-66
2023/02/20 11:32:19;;;;;;;21.00;9.80;;;;;;;3.37;100.00;99050.56;107247;1274;26647;-65
2023/02/20 11:35:16;;;;;;;16.50;6.60;;;;;;;3.46;100.00;99046.66;107068;1274;25343;-66
2023/02/20 11:37:49;;;;;;;10.40;4.40;;;;;;;3.50;100.00;99053.77;107129;1274;25405;-65
2023/02/20 11:40:27;;;;;;;9.70;4.90;;;;;;;3.41;100.00;99050.53;107156;1274;24253;-65
2023/02/20 11:43:15;;;;;;;15.80;6.10;;;;;;;3.35;100.00;99052.38;107120;1274;25303;-66
2023/02/20 11:45:43;;;;;;;8.20;4.50;;;;;;;3.49;100.00;99052.04;107016;1274;25316;-67
2023/02/20 11:48:18;;;;;;;12.40;5.00;;;;;;;3.53;100.00;99055.23;106824;1274;25354;-67
2023/02/20 11:50:51;;;;;;;7.60;3.90;;;;;;;3.48;100.00;99057.55;106906;1274;25434;-68
2023/02/20 11:53:25;;;;;;;15.30;5.20;;;;;;;3.43;100.00;99057.64;106314;1274;1003196;-67
2023/02/20 11:56:15;;;;;;;18.80;7.80;;;;;;;3.23;100.00;99066.48;107038;1274;25354;-66
2023/02/20 11:58:45;;;;;;;10.90;4.10;;;;;;;2.87;100.00;99083.47;107191;1274;22544;-67